Time;durP1;ratioP1;P1;durP2;ratioP2;P2;SDS_P1;SDS_P2;PMS_P1;PMS_P2;Temp;Humidity;BMP_temperature;BMP_pressure;BME280_temperature;BME280_humidity;BME280_pressure;Samples;Min_cycle;Max_cycle;Signal;HPM_P1;HPM_P2
2021/03/24 00:00:37;;;;;;;15.98;8.90;;;;;;;-139.48;100.00;61774.03;5013530;28;20182;-67
2021/03/24 00:03:21;;;;;;;16.88;8.95;;;;;;;-139.48;100.00;61774.03;5012211;28;20112;-67
2021/03/24 00:06:05;;;;;;;17.52;11.05;;;;;;;-139.48;100.00;61774.03;5012612;28;20049;-67
2021/03/24 00:08:49;;;;;;;17.13;9.73;;;;;;;-139.48;100.00;61774.03;5012593;28;20091;-67
2021/03/24 00:11:33;;;;;;;16.85;9.82;;;;;;;-139.48;100.00;61774.03;5012580;28;20095;-67
2021/03/24 00:14:17;;;;;;;16.60;9.75;;;;;;;-139.48;100.00;61774.03;5012588;28;20056;-67
2021/03/24 00:17:01;;;;;;;17.60;9.18;;;;;;;-139.48;100.00;61774.03;5013282;28;20049;-66
2021/03/24 00:19:45;;;;;;;;;;;;;;;-139.48;100.00;61774.03;5012628;28;20549;-66
2021/03/24 00:22:29;;;;;;;18.27;9.75;;;;;;;-139.48;100.00;61774.03;5013684;28;19956;-67
2021/03/24 00:25:15;;;;;;;20.77;11.65;;;;;;;-139.48;100.00;61774.03;5012506;28;20192;-66
2021/03/24 00:27:59;;;;;;;22.17;11.27;;;;;;;-139.48;100.00;61774.03;5012451;28;20057;-67
2021/03/24 00:30:46;;;;;;;21.15;11.20;;;;;;;-139.48;100.00;61774.03;5013410;28;20108;-67
2021/03/24 00:33:30;;;;;;;19.95;10.70;;;;;;;-139.48;100.00;61774.03;5012392;28;20407;-64
2021/03/24 00:36:14;;;;;;;18.98;11.30;;;;;;;-139.48;100.00;61774.03;4998717;28;20410;-67
2021/03/24 00:38:58;;;;;;;19.20;9.95;;;;;;;-139.48;100.00;61774.03;4998676;28;20192;-67
2021/03/24 00:41:41;;;;;;;19.50;10.20;;;;;;;-139.48;100.00;61774.03;5012968;28;20049;-67
2021/03/24 00:44:25;;;;;;;20.05;10.25;;;;;;;-139.48;100.00;61774.03;5012203;28;20053;-67
2021/03/24 00:47:09;;;;;;;18.00;10.70;;;;;;;-139.48;100.00;61774.03;4998103;28;20139;-67
2021/03/24 00:49:53;;;;;;;16.65;10.02;;;;;;;-139.48;100.00;61774.03;5012004;28;20052;-66
2021/03/24 00:52:37;;;;;;;15.63;9.40;;;;;;;-139.48;100.00;61774.03;5013102;28;20398;-67
2021/03/24 00:55:22;;;;;;;;;;;;;;;-139.48;100.00;61774.03;5012632;28;20137;-67
2021/03/24 00:58:05;;;;;;;16.38;9.38;;;;;;;-139.48;100.00;61774.03;5013129;28;19919;-66
2021/03/24 01:00:50;;;;;;;16.80;8.68;;;;;;;-139.48;100.00;61774.03;5012085;28;20475;-66
2021/03/24 01:03:36;;;;;;;15.35;9.20;;;;;;;-139.48;100.00;61774.03;4998076;28;20044;-66
2021/03/24 01:06:20;;;;;;;17.85;10.32;;;;;;;-139.48;100.00;61774.03;5013053;28;20049;-66
2021/03/24 01:09:07;;;;;;;18.13;10.75;;;;;;;-139.48;100.00;61774.03;5014270;28;20053;-66
2021/03/24 01:11:51;;;;;;;17.75;10.07;;;;;;;-139.48;100.00;61774.03;5016369;28;20099;-67
2021/03/24 01:14:36;;;;;;;16.70;10.00;;;;;;;-139.48;100.00;61774.03;5015237;28;20053;-65
2021/03/24 01:17:20;;;;;;;16.77;9.85;;;;;;;-139.48;100.00;61774.03;5015137;28;20100;-67
2021/03/24 01:20:04;;;;;;;14.85;8.90;;;;;;;-139.48;100.00;61774.03;5015351;28;20072;-67
2021/03/24 01:22:48;;;;;;;17.85;9.30;;;;;;;-139.48;100.00;61774.03;5001208;28;20061;-66
2021/03/24 01:25:33;;;;;;;15.63;9.35;;;;;;;-139.48;100.00;61774.03;5001178;28;20059;-67
2021/03/24 01:28:20;;;;;;;18.02;10.20;;;;;;;-139.48;100.00;61774.03;5015162;28;20406;-67
2021/03/24 01:31:04;;;;;;;17.60;10.25;;;;;;;-139.48;100.00;61774.03;5001000;28;20407;-67
2021/03/24 01:33:48;;;;;;;18.50;9.80;;;;;;;-139.48;100.00;61774.03;5014804;28;20048;-67
2021/03/24 01:36:32;;;;;;;16.92;9.52;;;;;;;-139.48;100.00;61774.03;5015097;28;20057;-67
2021/03/24 01:39:16;;;;;;;17.48;9.75;;;;;;;-139.48;100.00;61774.03;5014620;28;20139;-66
2021/03/24 01:42:00;;;;;;;16.42;9.88;;;;;;;-139.48;100.00;61774.03;5014813;28;20049;-67
2021/03/24 01:45:02;;;;;;;14.23;8.93;;;;;;;-139.48;100.00;61774.03;5015148;28;20088;-67
2021/03/24 01:47:47;;;;;;;16.48;9.65;;;;;;;-139.48;100.00;61774.03;5015799;28;20060;-67
2021/03/24 01:50:35;;;;;;;16.08;9.18;;;;;;;-139.48;100.00;61774.03;5014805;28;20044;-67
2021/03/24 01:53:19;;;;;;;14.38;8.60;;;;;;;-139.48;100.00;61774.03;5014398;28;20052;-67
2021/03/24 01:56:04;;;;;;;14.95;9.13;;;;;;;-139.48;100.00;61774.03;5014690;28;20061;-67
2021/03/24 01:58:48;;;;;;;19.55;9.73;;;;;;;-139.48;100.00;61774.03;5014603;28;20048;-66
2021/03/24 02:01:32;;;;;;;19.23;9.60;;;;;;;-139.48;100.00;61774.03;5014149;28;20142;-67
2021/03/24 02:04:16;;;;;;;16.92;10.13;;;;;;;-139.48;100.00;61774.03;5014999;23;20084;-69
2021/03/24 02:07:14;;;;;;;17.55;10.20;;;;;;;-139.48;100.00;61774.03;4981527;28;20465;-69
2021/03/24 02:10:04;;;;;;;18.02;9.80;;;;;;;-139.48;100.00;61774.03;4981383;28;20097;-66
2021/03/24 02:12:50;;;;;;;16.95;9.20;;;;;;;-139.48;100.00;61774.03;4980822;28;20104;-67
2021/03/24 02:15:40;;;;;;;18.52;10.23;;;;;;;-139.48;100.00;61774.03;4976022;28;20086;-70
2021/03/24 02:18:25;;;;;;;18.20;9.93;;;;;;;-139.48;100.00;61774.03;4948353;28;20146;-69
2021/03/24 02:21:18;;;;;;;18.48;10.93;;;;;;;-139.48;100.00;61774.03;4960692;28;20589;-67
2021/03/24 02:24:27;;;;;;;19.23;10.50;;;;;;;-139.48;100.00;61774.03;4961606;28;20093;-69
2021/03/24 02:27:24;;;;;;;18.17;10.15;;;;;;;-139.48;100.00;61774.03;4976624;28;20047;-68
2021/03/24 02:30:19;;;;;;;18.88;10.10;;;;;;;-139.48;100.00;61774.03;4949054;28;20077;-66
2021/03/24 02:33:26;;;;;;;17.58;10.55;;;;;;;-139.48;100.00;61774.03;4975979;28;20129;-69
2021/03/24 02:36:16;;;;;;;18.25;10.40;;;;;;;-139.48;100.00;61774.03;4961459;28;20046;-69
2021/03/24 02:39:05;;;;;;;19.05;11.38;;;;;;;-139.48;100.00;61774.03;4960848;28;20074;-69
2021/03/24 02:41:50;;;;;;;19.58;11.10;;;;;;;-139.48;100.00;61774.03;4947407;28;20088;-69
2021/03/24 02:44:36;;;;;;;18.73;11.57;;;;;;;-139.48;100.00;61774.03;4947207;28;20053;-69
2021/03/24 02:47:20;;;;;;;18.10;10.93;;;;;;;-139.48;100.00;61774.03;4960921;28;20058;-69
2021/03/24 02:50:06;;;;;;;21.83;11.73;;;;;;;-139.48;100.00;61774.03;4947393;28;20404;-69
2021/03/24 02:52:50;;;;;;;16.60;10.43;;;;;;;-139.48;100.00;61774.03;4947227;28;20046;-69
2021/03/24 02:55:37;;;;;;;18.00;10.55;;;;;;;-139.48;100.00;61774.03;4960861;28;20081;-69
2021/03/24 02:58:21;;;;;;;18.27;10.10;;;;;;;-139.48;100.00;61774.03;4947266;28;20470;-66
2021/03/24 03:01:12;;;;;;;19.50;10.45;;;;;;;-139.48;100.00;61774.03;4975483;28;20403;-67
2021/03/24 03:04:00;;;;;;;18.48;10.55;;;;;;;-139.48;100.00;61774.03;4960593;28;20109;-68
2021/03/24 03:06:46;;;;;;;16.50;10.02;;;;;;;-139.48;100.00;61774.03;4960439;28;20049;-69
2021/03/24 03:10:00;;;;;;;18.48;10.77;;;;;;;-139.48;100.00;61774.03;4960654;28;20126;-69
2021/03/24 03:13:13;;;;;;;18.00;10.70;;;;;;;-139.48;100.00;61774.03;4960375;28;20077;-69
2021/03/24 03:16:11;;;;;;;18.42;10.65;;;;;;;-139.48;100.00;61774.03;4974912;28;20531;-69
2021/03/24 03:19:22;;;;;;;17.83;9.55;;;;;;;-139.48;100.00;61774.03;4960632;28;20049;-68
2021/03/24 03:22:19;;;;;;;18.63;11.27;;;;;;;-139.48;100.00;61774.03;4960339;28;20076;-69
2021/03/24 03:25:17;;;;;;;19.80;10.90;;;;;;;-139.48;100.00;61774.03;4946579;28;20053;-69
2021/03/24 03:28:06;;;;;;;17.35;9.75;;;;;;;-139.48;100.00;61774.03;4960368;28;20174;-69
2021/03/24 03:30:52;;;;;;;17.63;9.13;;;;;;;-139.48;100.00;61774.03;4960031;28;20419;-68
2021/03/24 03:33:37;;;;;;;16.52;9.98;;;;;;;-139.48;100.00;61774.03;4960230;28;20101;-69
2021/03/24 03:36:23;;;;;;;14.73;9.05;;;;;;;-139.48;100.00;61774.03;4960494;28;20097;-67
2021/03/24 03:39:11;;;;;;;16.75;10.32;;;;;;;-139.48;100.00;61774.03;4960156;28;20058;-67
2021/03/24 03:41:57;;;;;;;17.33;10.10;;;;;;;-139.48;100.00;61774.03;4959919;28;20049;-67
2021/03/24 03:44:41;;;;;;;21.05;10.75;;;;;;;-139.48;100.00;61774.03;4960076;28;20049;-70
2021/03/24 03:47:25;;;;;;;;;;;;;;;-139.48;100.00;61774.03;4960593;28;20053;-67
2021/03/24 03:50:15;;;;;;;18.93;10.77;;;;;;;-139.48;100.00;61774.03;4959842;28;19925;-69
2021/03/24 03:53:31;;;;;;;18.77;9.73;;;;;;;-139.48;100.00;61774.03;4946275;28;20800;-68
2021/03/24 03:56:30;;;;;;;16.10;9.77;;;;;;;-139.48;100.00;61774.03;4959738;28;20049;-68
2021/03/24 03:59:24;;;;;;;19.23;10.88;;;;;;;-139.48;100.00;61774.03;4960024;28;20046;-68
2021/03/24 04:02:11;;;;;;;21.40;11.88;;;;;;;-139.48;100.00;61774.03;4946485;28;20496;-69
2021/03/24 04:05:03;;;;;;;19.17;11.30;;;;;;;-139.48;100.00;61774.03;4959858;28;20506;-68
2021/03/24 04:07:53;;;;;;;22.42;12.75;;;;;;;-139.48;100.00;61774.03;4960188;28;20141;-68
2021/03/24 04:10:39;;;;;;;24.23;12.18;;;;;;;-139.48;100.00;61774.03;4959962;28;20455;-68
2021/03/24 04:13:27;;;;;;;23.50;11.70;;;;;;;-139.48;100.00;61774.03;4959788;28;20053;-69
2021/03/24 04:16:11;;;;;;;22.35;11.70;;;;;;;-139.48;100.00;61774.03;4946326;28;20104;-68
2021/03/24 04:19:05;;;;;;;22.15;12.60;;;;;;;-139.48;100.00;61774.03;4959603;28;20120;-66
2021/03/24 04:21:52;;;;;;;19.75;11.27;;;;;;;-139.48;100.00;61774.03;4974176;28;20524;-68
2021/03/24 04:24:40;;;;;;;19.20;11.60;;;;;;;-139.48;100.00;61774.03;4946538;28;20098;-68
2021/03/24 04:27:27;;;;;;;25.75;11.38;;;;;;;-139.48;100.00;61774.03;4974406;28;20431;-67
2021/03/24 04:30:14;;;;;;;19.00;10.98;;;;;;;-139.48;100.00;61774.03;4959459;28;20045;-69
2021/03/24 04:32:58;;;;;;;20.58;11.52;;;;;;;-139.48;100.00;61774.03;4959443;28;20522;-68
2021/03/24 04:35:42;;;;;;;20.42;11.75;;;;;;;-139.48;100.00;61774.03;4959656;28;20085;-68
2021/03/24 04:38:40;;;;;;;24.05;11.32;;;;;;;-139.48;100.00;61774.03;4959445;28;20122;-68
2021/03/24 04:41:36;;;;;;;20.73;11.05;;;;;;;-139.48;100.00;61774.03;4959414;28;20053;-68
2021/03/24 04:44:25;;;;;;;20.15;11.02;;;;;;;-139.48;100.00;61774.03;4961560;28;20050;-68
2021/03/24 04:47:15;;;;;;;19.08;10.57;;;;;;;-139.48;100.00;61774.03;4962954;28;20478;-68
2021/03/24 04:50:09;;;;;;;20.48;11.18;;;;;;;-139.48;100.00;61774.03;4963183;28;20086;-68
2021/03/24 04:52:55;;;;;;;20.30;11.18;;;;;;;-139.48;100.00;61774.03;4963078;28;20094;-68
2021/03/24 04:55:40;;;;;;;18.60;10.93;;;;;;;-139.48;100.00;61774.03;4963131;28;20125;-68
2021/03/24 04:58:35;;;;;;;19.95;11.38;;;;;;;-139.48;100.00;61774.03;4949502;28;20054;-69
2021/03/24 05:01:32;;;;;;;20.17;10.88;;;;;;;-139.48;100.00;61774.03;4962997;28;20058;-68
2021/03/24 05:04:22;;;;;;;20.02;10.75;;;;;;;-139.48;100.00;61774.03;4962417;28;20053;-68
2021/03/24 05:07:16;;;;;;;18.85;10.85;;;;;;;-139.48;100.00;61774.03;4977535;28;20057;-69
2021/03/24 05:10:02;;;;;;;19.13;11.23;;;;;;;-139.48;100.00;61774.03;4949420;28;20550;-67
2021/03/24 05:12:54;;;;;;;19.00;10.20;;;;;;;-139.48;100.00;61774.03;4962551;28;20054;-68
2021/03/24 05:15:43;;;;;;;19.73;11.48;;;;;;;-139.48;100.00;61774.03;4949267;28;20053;-69
2021/03/24 05:18:27;;;;;;;20.55;11.07;;;;;;;-139.48;100.00;61774.03;4962722;28;20089;-68
2021/03/24 05:21:46;;;;;;;20.67;10.07;;;;;;;-139.48;100.00;61774.03;4962772;28;20175;-68
2021/03/24 05:24:33;;;;;;;20.40;11.40;;;;;;;-139.48;100.00;61774.03;4968525;28;20085;-68
2021/03/24 05:27:22;;;;;;;18.35;10.57;;;;;;;-139.48;100.00;61774.03;4948809;28;20057;-68
2021/03/24 05:30:17;;;;;;;25.45;12.10;;;;;;;-139.48;100.00;61774.03;4962222;28;20046;-68
2021/03/24 05:33:23;;;;;;;19.13;10.43;;;;;;;-139.48;100.00;61774.03;4962203;28;20519;-68
2021/03/24 05:36:18;;;;;;;20.27;10.38;;;;;;;-139.48;100.00;61774.03;4948887;28;20126;-68
2021/03/24 05:39:17;;;;;;;20.58;11.32;;;;;;;-139.48;100.00;61774.03;4948769;28;20058;-68
2021/03/24 05:42:01;;;;;;;19.75;10.93;;;;;;;-139.48;100.00;61774.03;4976938;28;20407;-68
2021/03/24 05:45:07;;;;;;;21.27;11.35;;;;;;;-139.48;100.00;61774.03;4976585;28;20081;-68
2021/03/24 05:48:06;;;;;;;20.73;11.20;;;;;;;-139.48;100.00;61774.03;4976834;28;20077;-68
2021/03/24 05:50:55;;;;;;;17.13;10.75;;;;;;;-139.48;100.00;61774.03;4962088;28;20062;-68
2021/03/24 05:53:39;;;;;;;17.80;10.70;;;;;;;-139.48;100.00;61774.03;4948381;28;20057;-68
2021/03/24 05:56:23;;;;;;;;;;;;;;;-139.48;100.00;61774.03;4961160;28;20121;-69
2021/03/24 05:59:24;;;;;;;23.13;12.07;;;;;;;-139.48;100.00;61774.03;4961551;28;20482;-68
2021/03/24 06:02:40;;;;;;;19.20;11.52;;;;;;;-139.48;100.00;61774.03;4948134;28;20046;-68
2021/03/24 06:05:36;;;;;;;21.40;11.68;;;;;;;-139.48;100.00;61774.03;4943650;28;20451;-68
2021/03/24 06:08:42;;;;;;;18.95;10.95;;;;;;;-139.48;100.00;61774.03;4976177;28;20042;-68
2021/03/24 06:11:48;;;;;;;18.52;10.63;;;;;;;-139.48;100.00;61774.03;4961644;28;20118;-69
2021/03/24 06:14:41;;;;;;;18.13;10.50;;;;;;;-139.48;100.00;61774.03;4976264;28;20093;-69
2021/03/24 06:17:34;;;;;;;18.38;10.38;;;;;;;-139.48;100.00;61774.03;4961452;28;20459;-68
2021/03/24 06:20:37;;;;;;;17.85;10.30;;;;;;;-139.48;100.00;61774.03;4961462;28;20050;-68
2021/03/24 06:23:43;;;;;;;21.92;11.50;;;;;;;-139.48;100.00;61774.03;4963382;28;20077;-69
2021/03/24 06:26:33;;;;;;;20.48;11.45;;;;;;;-139.48;100.00;61774.03;4980494;28;20045;-68
2021/03/24 06:29:30;;;;;;;21.83;12.32;;;;;;;-139.48;100.00;61774.03;4965312;28;20053;-68
2021/03/24 06:32:43;;;;;;;22.70;12.73;;;;;;;-139.48;100.00;61774.03;4963699;28;20045;-69
2021/03/24 06:36:04;;;;;;;27.85;13.35;;;;;;;-139.48;100.00;61774.03;4961477;28;20097;-68
2021/03/24 06:39:07;;;;;;;24.88;13.93;;;;;;;-139.48;100.00;61774.03;4961070;28;20475;-69
2021/03/24 06:42:09;;;;;;;25.23;13.57;;;;;;;-139.48;100.00;61774.03;4976128;28;20049;-69
2021/03/24 06:45:21;;;;;;;24.92;14.07;;;;;;;-139.48;100.00;61774.03;4960992;28;20049;-68
2021/03/24 06:48:20;;;;;;;23.83;13.45;;;;;;;-139.48;100.00;61774.03;4976042;28;20057;-69
2021/03/24 06:51:41;;;;;;;22.08;12.70;;;;;;;-139.48;100.00;61774.03;4975396;28;20041;-69
2021/03/24 06:54:28;;;;;;;23.73;13.23;;;;;;;-139.48;100.00;61774.03;4961059;28;20101;-69
2021/03/24 06:57:34;;;;;;;24.92;13.07;;;;;;;-139.48;100.00;61774.03;4975555;28;20097;-69
2021/03/24 07:00:49;;;;;;;21.58;12.30;;;;;;;-139.48;100.00;61774.03;4960813;28;20075;-69
2021/03/24 07:03:52;;;;;;;20.20;12.57;;;;;;;-139.48;100.00;61774.03;4975062;28;20081;-69
2021/03/24 07:06:42;;;;;;;22.05;13.10;;;;;;;-139.48;100.00;61774.03;4975010;28;20054;-66
2021/03/24 07:09:48;;;;;;;19.33;12.35;;;;;;;-139.48;100.00;61774.03;4947240;28;20042;-66
2021/03/24 07:12:56;;;;;;;21.73;12.35;;;;;;;-139.48;100.00;61774.03;4975138;28;20096;-69
2021/03/24 07:16:02;;;;;;;21.20;12.10;;;;;;;-139.48;100.00;61774.03;4960328;28;20554;-69
2021/03/24 07:19:27;;;;;;;20.48;12.80;;;;;;;-139.48;100.00;61774.03;4974890;28;20049;-68
2021/03/24 07:22:23;;;;;;;22.05;13.38;;;;;;;-139.48;100.00;61774.03;4960427;28;20050;-69
2021/03/24 07:25:36;;;;;;;22.58;13.57;;;;;;;-139.48;100.00;61774.03;4960121;28;20054;-69
2021/03/24 07:28:33;;;;;;;24.75;14.70;;;;;;;-139.48;100.00;61774.03;4975110;28;20049;-69
2021/03/24 07:31:43;;;;;;;21.70;14.05;;;;;;;-139.48;100.00;61774.03;4974747;28;20410;-68
2021/03/24 07:34:31;;;;;;;24.38;15.13;;;;;;;-139.48;100.00;61774.03;4960130;28;20574;-69
2021/03/24 07:37:36;;;;;;;24.90;14.32;;;;;;;-139.48;100.00;61774.03;4960304;28;20070;-69
2021/03/24 07:40:37;;;;;;;29.05;15.98;;;;;;;-139.48;100.00;61774.03;4974566;28;20416;-69
2021/03/24 07:43:52;;;;;;;28.60;15.30;;;;;;;-139.48;100.00;61774.03;4974535;28;20546;-69
2021/03/24 07:46:52;;;;;;;27.92;16.35;;;;;;;-139.48;100.00;61774.03;4959383;28;20090;-67
2021/03/24 07:49:59;;;;;;;32.45;16.92;;;;;;;-139.48;100.00;61774.03;4960212;28;20041;-68
2021/03/24 07:53:18;;;;;;;29.80;15.60;;;;;;;-139.48;100.00;61774.03;4959941;28;20050;-69
2021/03/24 07:56:14;;;;;;;27.30;17.00;;;;;;;-139.48;100.00;61774.03;4960080;28;20411;-69
2021/03/24 07:58:58;;;;;;;34.30;17.77;;;;;;;-139.48;100.00;61774.03;4960037;28;20109;-69
2021/03/24 08:01:58;;;;;;;29.80;17.75;;;;;;;-139.48;100.00;61774.03;4959796;28;20050;-69
2021/03/24 08:05:20;;;;;;;29.23;17.67;;;;;;;-139.48;100.00;61774.03;4994875;23;20483;-68
2021/03/24 08:08:30;;;;;;;29.17;17.60;;;;;;;-139.48;100.00;61774.03;4993983;28;20101;-68
2021/03/24 08:11:17;;;;;;;33.38;18.88;;;;;;;-139.48;100.00;61774.03;4992774;28;20100;-68
2021/03/24 08:14:17;;;;;;;27.55;17.95;;;;;;;-139.48;100.00;61774.03;4993830;28;20053;-68
2021/03/24 08:17:19;;;;;;;35.53;18.55;;;;;;;-139.48;100.00;61774.03;4993871;28;20093;-67
2021/03/24 08:20:19;;;;;;;30.75;18.92;;;;;;;-139.48;100.00;61774.03;4995978;28;20517;-68
2021/03/24 08:23:11;;;;;;;29.50;19.02;;;;;;;-139.48;100.00;61774.03;4997854;28;20049;-68
2021/03/24 08:26:09;;;;;;;28.58;18.42;;;;;;;-139.48;100.00;61774.03;4982935;28;20052;-68
2021/03/24 08:29:14;;;;;;;41.25;19.60;;;;;;;-139.48;100.00;61774.03;4996467;28;20088;-68
2021/03/24 08:32:21;;;;;;;32.50;19.35;;;;;;;-139.48;100.00;61774.03;4997541;28;20061;-68
2021/03/24 08:35:26;;;;;;;30.48;18.95;;;;;;;-139.48;100.00;61774.03;4996389;28;20053;-67
2021/03/24 08:38:12;;;;;;;;;;;;;;;-139.48;100.00;61774.03;4996955;28;20097;-66
2021/03/24 08:41:18;;;;;;;22.83;14.88;;;;;;;-139.48;100.00;61774.03;4996272;28;19925;-68
2021/03/24 08:44:23;;;;;;;25.27;16.02;;;;;;;-139.48;100.00;61774.03;4997798;28;20049;-68
2021/03/24 08:47:18;;;;;;;29.73;17.17;;;;;;;-139.48;100.00;61774.03;4997546;28;20092;-68
2021/03/24 08:50:03;;;;;;;26.38;17.10;;;;;;;-139.48;100.00;61774.03;4996242;28;20057;-68
2021/03/24 08:53:05;;;;;;;28.63;16.77;;;;;;;-139.48;100.00;61774.03;4996223;28;20049;-68
2021/03/24 08:56:10;;;;;;;22.48;16.25;;;;;;;-139.48;100.00;61774.03;4996174;28;20119;-68
2021/03/24 08:59:24;;;;;;;26.08;17.60;;;;;;;-139.48;100.00;61774.03;4995684;28;20514;-68
2021/03/24 09:02:35;;;;;;;29.92;17.30;;;;;;;-139.48;100.00;61774.03;4995814;28;20598;-69
2021/03/24 09:05:22;;;;;;;29.45;18.27;;;;;;;-139.48;100.00;61774.03;4996596;28;20045;-68
2021/03/24 09:08:45;;;;;;;26.40;17.58;;;;;;;-139.48;100.00;61774.03;4997127;28;20097;-69
2021/03/24 09:12:01;;;;;;;28.85;17.55;;;;;;;-139.48;100.00;61774.03;4973655;28;20096;-68
2021/03/24 09:14:54;;;;;;;28.40;16.15;;;;;;;-139.48;100.00;61774.03;4993760;28;20053;-68
2021/03/24 09:18:06;;;;;;;28.80;16.67;;;;;;;-139.48;100.00;61774.03;4996495;28;20057;-68
2021/03/24 09:21:15;;;;;;;27.17;16.60;;;;;;;-139.48;100.00;61774.03;4995718;28;20451;-68
2021/03/24 09:24:44;;;;;;;26.95;16.02;;;;;;;-139.48;100.00;61774.03;4995390;28;20564;-68
2021/03/24 09:27:57;;;;;;;27.92;16.92;;;;;;;-139.48;100.00;61774.03;4995334;28;20041;-68
2021/03/24 09:31:11;;;;;;;26.70;16.23;;;;;;;-139.48;100.00;61774.03;4996189;28;20100;-68
2021/03/24 09:34:39;;;;;;;27.00;16.45;;;;;;;-139.48;100.00;61774.03;4995420;28;20091;-69
2021/03/24 09:37:35;;;;;;;21.88;15.13;;;;;;;-139.48;100.00;61774.03;4988542;28;20129;-66
2021/03/24 09:40:32;;;;;;;22.80;14.50;;;;;;;-139.48;100.00;61774.03;4995346;28;20126;-67
2021/03/24 09:43:25;;;;;;;27.55;16.63;;;;;;;-139.48;100.00;61774.03;4995119;28;20569;-66
2021/03/24 09:46:16;;;;;;;21.73;14.82;;;;;;;-139.48;100.00;61774.03;4995166;28;20513;-69
2021/03/24 09:49:18;;;;;;;24.50;15.38;;;;;;;-139.48;100.00;61774.03;4981517;28;20087;-67
2021/03/24 09:52:29;;;;;;;18.70;14.05;;;;;;;-139.48;100.00;61774.03;4996200;28;20053;-67
2021/03/24 09:55:21;;;;;;;21.38;13.90;;;;;;;-139.48;100.00;61774.03;4995066;28;20101;-67
2021/03/24 09:58:32;;;;;;;18.15;13.05;;;;;;;-139.48;100.00;61774.03;4995133;28;20502;-67
2021/03/24 10:01:25;;;;;;;19.23;13.82;;;;;;;-139.48;100.00;61774.03;4994791;28;20122;-67
2021/03/24 10:04:25;;;;;;;17.85;13.43;;;;;;;-139.48;100.00;61774.03;4994722;28;20045;-67
2021/03/24 10:07:19;;;;;;;17.27;11.00;;;;;;;-139.48;100.00;61774.03;4981124;28;20125;-67
2021/03/24 10:10:12;;;;;;;18.02;12.65;;;;;;;-139.48;100.00;61774.03;4994830;28;20049;-67
2021/03/24 10:13:02;;;;;;;17.90;12.50;;;;;;;-139.48;100.00;61774.03;4994720;28;20089;-67
2021/03/24 10:15:49;;;;;;;18.17;13.15;;;;;;;-139.48;100.00;61774.03;4995739;28;20049;-68
2021/03/24 10:18:46;;;;;;;20.63;17.98;;;;;;;-139.48;100.00;61774.03;4980659;28;20178;-68
2021/03/24 10:21:39;;;;;;;14.48;11.40;;;;;;;-139.48;100.00;61774.03;4994719;28;20052;-68
2021/03/24 10:24:33;;;;;;;14.40;10.60;;;;;;;-139.48;100.00;61774.03;4994553;28;20084;-67
2021/03/24 10:27:19;;;;;;;15.20;10.82;;;;;;;-139.48;100.00;61774.03;4994517;28;20054;-68
2021/03/24 10:30:03;;;;;;;13.15;10.13;;;;;;;-139.48;100.00;61774.03;4980790;28;20406;-68
2021/03/24 10:32:57;;;;;;;15.65;11.38;;;;;;;-139.48;100.00;61774.03;4995084;28;20052;-68
2021/03/24 10:36:13;;;;;;;16.60;12.00;;;;;;;-139.48;100.00;61774.03;4994091;28;20045;-68
2021/03/24 10:39:23;;;;;;;15.02;11.88;;;;;;;-139.48;100.00;61774.03;4969732;28;20044;-67
2021/03/24 10:42:21;;;;;;;18.25;14.43;;;;;;;-139.48;100.00;61774.03;4979773;28;20090;-68
2021/03/24 10:45:25;;;;;;;16.00;13.10;;;;;;;-139.48;100.00;61774.03;4994148;28;20040;-68
2021/03/24 10:48:21;;;;;;;13.05;11.65;;;;;;;-139.48;100.00;61774.03;4994148;28;20508;-68
2021/03/24 10:51:30;;;;;;;13.80;11.00;;;;;;;-139.48;100.00;61774.03;4993762;28;20041;-67
2021/03/24 10:54:23;;;;;;;15.68;12.32;;;;;;;-139.48;100.00;61774.03;4993771;28;20458;-68
2021/03/24 10:57:14;;;;;;;11.65;10.50;;;;;;;-139.48;100.00;61774.03;4980265;28;20272;-68
2021/03/24 11:00:14;;;;;;;13.05;9.65;;;;;;;-139.48;100.00;61774.03;4993835;28;20173;-68
2021/03/24 11:03:07;;;;;;;15.70;14.13;;;;;;;-139.48;100.00;61774.03;4980109;28;20120;-68
2021/03/24 11:06:12;;;;;;;16.90;14.77;;;;;;;-139.48;100.00;61774.03;4994333;28;20525;-68
2021/03/24 11:09:09;;;;;;;17.15;13.00;;;;;;;-139.48;100.00;61774.03;4994044;28;20053;-68
2021/03/24 11:12:02;;;;;;;13.02;11.57;;;;;;;-139.48;100.00;61774.03;4993605;28;20566;-67
2021/03/24 11:15:24;;;;;;;13.98;12.57;;;;;;;-139.48;100.00;61774.03;4994314;28;20161;-68
2021/03/24 11:18:11;;;;;;;15.57;12.77;;;;;;;-139.48;100.00;61774.03;4979938;28;20494;-68
2021/03/24 11:20:58;;;;;;;13.80;11.88;;;;;;;-139.48;100.00;61774.03;4993279;28;20050;-68
2021/03/24 11:23:51;;;;;;;11.70;10.52;;;;;;;-139.48;100.00;61774.03;4993464;28;20049;-68
2021/03/24 11:27:08;;;;;;;12.73;11.20;;;;;;;-139.48;100.00;61774.03;4993477;28;20125;-68
2021/03/24 11:30:13;;;;;;;13.90;12.23;;;;;;;-139.48;100.00;61774.03;4986515;28;20093;-68
2021/03/24 11:33:02;;;;;;;14.45;12.95;;;;;;;-139.48;100.00;61774.03;4993417;28;20180;-68
2021/03/24 11:36:18;;;;;;;13.80;12.30;;;;;;;-139.48;100.00;61774.03;4994108;28;20129;-68
2021/03/24 11:39:27;;;;;;;12.43;11.13;;;;;;;-139.48;100.00;61774.03;4994191;28;20045;-68
2021/03/24 11:42:14;;;;;;;16.42;12.95;;;;;;;-139.48;100.00;61774.03;4993264;28;20085;-68
2021/03/24 11:44:58;;;;;;;14.75;12.32;;;;;;;-139.48;100.00;61774.03;4993296;28;20467;-67
2021/03/24 11:48:22;;;;;;;14.65;12.73;;;;;;;-139.48;100.00;61774.03;4993121;28;20052;-67
2021/03/24 11:51:24;;;;;;;15.75;12.93;;;;;;;-139.48;100.00;61774.03;4993085;28;20053;-66
2021/03/24 11:54:16;;;;;;;15.10;11.65;;;;;;;-139.48;100.00;61774.03;4993719;28;20078;-68
2021/03/24 11:57:27;;;;;;;18.42;13.68;;;;;;;-139.48;100.00;61774.03;4994028;28;20057;-68
2021/03/24 12:00:27;;;;;;;16.95;13.93;;;;;;;-139.48;100.00;61774.03;4993494;28;20415;-67
2021/03/24 12:03:32;;;;;;;15.13;13.13;;;;;;;-139.48;100.00;61774.03;4993779;28;20557;-68
2021/03/24 12:06:29;;;;;;;18.92;12.48;;;;;;;-139.48;100.00;61774.03;4993782;28;20048;-67
2021/03/24 12:09:21;;;;;;;16.10;12.25;;;;;;;-139.48;100.00;61774.03;4993966;28;20052;-67
2021/03/24 12:12:08;;;;;;;18.00;13.15;;;;;;;-139.48;100.00;61774.03;4993276;28;20269;-67
2021/03/24 12:15:28;;;;;;;17.63;12.50;;;;;;;-139.48;100.00;61774.03;4993862;28;20100;-67
2021/03/24 12:18:16;;;;;;;16.27;12.93;;;;;;;-139.48;100.00;61774.03;4990309;28;20049;-67
2021/03/24 12:21:04;;;;;;;16.90;13.57;;;;;;;-139.48;100.00;61774.03;4993517;28;20054;-67
2021/03/24 12:23:50;;;;;;;14.90;11.82;;;;;;;-139.48;100.00;61774.03;4992812;28;20085;-67
2021/03/24 12:26:37;;;;;;;15.38;12.45;;;;;;;-139.48;100.00;61774.03;4992835;28;20073;-67
2021/03/24 12:29:23;;;;;;;18.17;12.93;;;;;;;-139.48;100.00;61774.03;4993646;28;20562;-67
2021/03/24 12:32:19;;;;;;;17.88;12.88;;;;;;;-139.48;100.00;61774.03;4992428;28;20057;-67
2021/03/24 12:35:26;;;;;;;18.08;13.52;;;;;;;-139.48;100.00;61774.03;4992621;28;20068;-68
2021/03/24 12:38:19;;;;;;;21.85;12.57;;;;;;;-139.48;100.00;61774.03;4993500;28;20085;-67
2021/03/24 12:41:03;;;;;;;19.90;12.23;;;;;;;-139.48;100.00;61774.03;4992381;28;20066;-67
2021/03/24 12:43:49;;;;;;;;;;;;;;;-139.48;100.00;61774.03;4994258;28;20054;-68
2021/03/24 12:46:33;;;;;;;16.92;12.18;;;;;;;-139.48;100.00;61774.03;4992468;28;20013;-68
2021/03/24 12:49:20;;;;;;;16.80;12.00;;;;;;;-139.48;100.00;61774.03;4993327;28;20081;-68
2021/03/24 12:52:22;;;;;;;18.10;13.23;;;;;;;-139.48;100.00;61774.03;4978626;28;20491;-68
2021/03/24 12:55:08;;;;;;;16.50;12.20;;;;;;;-139.48;100.00;61774.03;4992227;28;20165;-68
2021/03/24 12:58:19;;;;;;;15.30;11.75;;;;;;;-139.48;100.00;61774.03;4992533;28;20044;-68
2021/03/24 13:01:21;;;;;;;14.80;11.88;;;;;;;-139.48;100.00;61774.03;4992392;28;20183;-68